createdAt,value
2022-09-23T00:01:23.675Z,2.38
2022-09-23T00:03:56.384Z,2.35
2022-09-23T00:06:24.351Z,2.05
2022-09-23T00:08:52.599Z,1.67
2022-09-23T00:11:28.204Z,2.08
2022-09-23T00:13:58.354Z,2.08
2022-09-23T00:16:34.002Z,1.73
2022-09-23T00:19:05.109Z,1.88
2022-09-23T00:21:32.480Z,1.50
2022-09-23T00:23:59.690Z,1.20
2022-09-23T00:26:27.583Z,1.40
2022-09-23T00:28:54.918Z,1.20
2022-09-23T00:31:25.920Z,1.30
2022-09-23T00:33:59.280Z,1.40
2022-09-23T00:36:29.131Z,1.13
2022-09-23T00:38:56.528Z,1.30
2022-09-23T00:41:24.966Z,1.23
2022-09-23T00:44:00.699Z,1.40
2022-09-23T00:46:47.998Z,1.50
2022-09-23T00:49:25.122Z,1.40
2022-09-23T00:52:00.730Z,1.35
2022-09-23T00:54:31.197Z,2.03
2022-09-23T00:57:00.519Z,1.52
2022-09-23T00:59:29.174Z,1.48
2022-09-23T01:01:58.835Z,1.40
2022-09-23T01:04:28.132Z,1.40
2022-09-23T01:06:55.497Z,1.50
2022-09-23T01:09:24.016Z,1.75
2022-09-23T01:12:04.356Z,1.63
2022-09-23T01:14:43.891Z,1.55
2022-09-23T01:17:48.951Z,1.65
2022-09-23T01:21:14.971Z,1.50
2022-09-23T01:24:30.011Z,1.40
2022-09-23T01:27:15.796Z,1.70
2022-09-23T01:30:11.097Z,1.42
2022-09-23T01:33:04.676Z,1.50
2022-09-23T01:36:10.047Z,1.52
2022-09-23T01:38:44.895Z,1.30
2022-09-23T01:41:44.660Z,1.42
2022-09-23T01:44:21.606Z,1.20
2022-09-23T01:47:25.002Z,1.50
2022-09-23T01:49:52.237Z,1.30
2022-09-23T01:52:40.199Z,1.20
2022-09-23T01:55:08.869Z,1.20
2022-09-23T01:58:26.379Z,1.10
2022-09-23T02:01:01.690Z,1.48
2022-09-23T02:03:34.655Z,1.23
2022-09-23T02:06:08.949Z,1.35
2022-09-23T02:08:43.980Z,1.30
2022-09-23T02:11:18.228Z,1.20
2022-09-23T02:13:52.032Z,1.40
2022-09-23T02:16:26.191Z,1.30
2022-09-23T02:19:09.910Z,1.30
2022-09-23T02:21:42.927Z,1.23
2022-09-23T02:24:17.242Z,1.48
2022-09-23T02:26:58.877Z,1.17
2022-09-23T02:29:41.680Z,1.17
2022-09-23T02:32:26.685Z,1.08
2022-09-23T02:35:00.241Z,1.30
2022-09-23T02:37:49.647Z,1.33
2022-09-23T02:40:26.280Z,1.27
2022-09-23T02:43:07.012Z,1.23
2022-09-23T02:45:35.628Z,1.10
2022-09-23T02:48:07.901Z,1.00
2022-09-23T02:50:40.020Z,1.15
2022-09-23T02:53:07.739Z,1.15
2022-09-23T02:55:35.345Z,1.23
2022-09-23T02:58:05.462Z,1.23
2022-09-23T03:00:48.074Z,1.33
2022-09-23T03:03:46.510Z,1.25
2022-09-23T03:06:46.333Z,1.42
2022-09-23T03:09:46.648Z,1.17
2022-09-23T03:12:23.084Z,1.27
2022-09-23T03:14:58.768Z,1.10
2022-09-23T03:17:33.852Z,1.17
2022-09-23T03:20:10.892Z,1.17
2022-09-23T03:22:42.196Z,0.93
2022-09-23T03:25:16.081Z,1.20
2022-09-23T03:27:45.602Z,0.98
2022-09-23T03:30:13.790Z,0.90
2022-09-23T03:32:46.292Z,1.10
2022-09-23T03:35:15.094Z,1.20
2022-09-23T03:37:53.655Z,1.10
2022-09-23T03:40:32.587Z,1.00
2022-09-23T03:43:02.639Z,1.00
2022-09-23T03:45:33.341Z,0.93
2022-09-23T03:48:01.301Z,1.00
2022-09-23T03:50:28.838Z,0.93
2022-09-23T03:52:56.300Z,0.85
2022-09-23T03:55:23.719Z,1.10
2022-09-23T03:57:51.195Z,1.30
2022-09-23T04:00:18.733Z,1.05
2022-09-23T04:02:46.061Z,0.80
2022-09-23T04:05:13.699Z,1.10
2022-09-23T04:07:41.249Z,1.00
2022-09-23T04:10:09.992Z,0.95
2022-09-23T04:12:38.246Z,1.00
2022-09-23T04:15:06.327Z,1.35
2022-09-23T04:17:33.736Z,1.60
2022-09-23T04:20:01.192Z,1.35
2022-09-23T04:22:28.765Z,0.90
2022-09-23T04:24:56.555Z,1.00
2022-09-23T04:27:24.029Z,1.00
2022-09-23T04:29:51.344Z,1.10
2022-09-23T04:32:18.820Z,1.20
2022-09-23T04:34:46.168Z,1.00
2022-09-23T04:37:13.649Z,1.05
2022-09-23T04:39:40.945Z,1.00
2022-09-23T04:42:09.502Z,1.20
2022-09-23T04:44:36.793Z,1.30
2022-09-23T04:47:04.482Z,1.00
2022-09-23T04:49:33.301Z,1.10
2022-09-23T04:52:00.720Z,1.05
2022-09-23T04:54:28.049Z,1.10
2022-09-23T04:56:55.548Z,1.42
2022-09-23T04:59:22.802Z,1.10
2022-09-23T05:01:52.001Z,1.30
2022-09-23T05:04:19.339Z,1.40
2022-09-23T05:06:46.631Z,1.20
2022-09-23T05:09:19.987Z,1.10
2022-09-23T05:11:47.315Z,0.98
2022-09-23T05:14:14.723Z,0.98
2022-09-23T05:16:42.022Z,1.00
2022-09-23T05:19:09.321Z,1.08
2022-09-23T05:21:37.777Z,0.80
2022-09-23T05:24:05.675Z,1.20
2022-09-23T05:26:33.665Z,1.02
2022-09-23T05:29:01.072Z,1.10
2022-09-23T05:31:30.287Z,1.10
2022-09-23T05:34:02.930Z,1.15
2022-09-23T05:36:37.576Z,1.38
2022-09-23T05:39:07.359Z,1.58
2022-09-23T05:41:36.528Z,1.30
2022-09-23T05:44:04.327Z,1.40
2022-09-23T05:46:32.187Z,1.27
2022-09-23T05:49:03.015Z,1.38
2022-09-23T05:51:32.500Z,1.97
2022-09-23T05:54:02.879Z,2.45
2022-09-23T05:56:31.070Z,2.90
2022-09-23T05:59:00.459Z,3.75
2022-09-23T06:01:32.241Z,3.55
2022-09-23T06:04:05.407Z,3.85
2022-09-23T06:06:37.826Z,3.60
2022-09-23T06:09:06.935Z,2.78
2022-09-23T06:11:35.723Z,2.17
2022-09-23T06:14:03.843Z,2.50
2022-09-23T06:16:33.656Z,2.08
2022-09-23T06:19:19.590Z,2.20
2022-09-23T06:21:48.923Z,2.10
2022-09-23T06:24:20.652Z,2.80
2022-09-23T06:26:49.117Z,2.67
2022-09-23T06:29:18.131Z,3.05
2022-09-23T06:31:45.532Z,2.78
2022-09-23T06:34:16.300Z,3.45
2022-09-23T06:36:45.858Z,2.73
2022-09-23T06:39:15.538Z,3.47
2022-09-23T06:41:46.187Z,3.00
2022-09-23T06:44:14.519Z,2.75
2022-09-23T06:46:42.387Z,2.53
2022-09-23T06:49:10.583Z,2.65
2022-09-23T06:51:37.956Z,2.03
2022-09-23T06:54:05.382Z,2.38
2022-09-23T06:56:37.924Z,2.17
2022-09-23T06:59:09.626Z,2.10
2022-09-23T07:01:37.068Z,2.13
2022-09-23T07:04:04.793Z,2.53
2022-09-23T07:06:32.150Z,2.35
2022-09-23T07:09:00.954Z,2.60
2022-09-23T07:11:32.267Z,2.55
2022-09-23T07:13:59.546Z,2.13
2022-09-23T07:16:26.849Z,2.70
2022-09-23T07:18:54.767Z,2.10
2022-09-23T07:21:22.077Z,2.63
2022-09-23T07:23:51.303Z,1.80
2022-09-23T07:26:19.834Z,1.70
2022-09-23T07:28:48.099Z,1.40
2022-09-23T07:31:27.236Z,1.05
2022-09-23T07:34:01.776Z,1.33
2022-09-23T07:36:32.610Z,1.50
2022-09-23T07:39:03.898Z,1.67
2022-09-23T07:41:33.120Z,1.60
2022-09-23T07:44:01.181Z,1.42
2022-09-23T07:46:34.042Z,1.33
2022-09-23T07:49:03.250Z,1.20
2022-09-23T07:51:36.791Z,0.93
2022-09-23T07:54:11.675Z,1.20
2022-09-23T07:56:39.382Z,1.30
2022-09-23T07:59:08.934Z,1.60
2022-09-23T08:01:42.131Z,2.00
2022-09-23T08:04:25.326Z,2.08
2022-09-23T08:06:55.835Z,2.20
2022-09-23T08:09:28.795Z,2.80
2022-09-23T08:11:56.079Z,1.98
2022-09-23T08:14:24.120Z,1.88
2022-09-23T08:16:52.263Z,1.80
2022-09-23T08:19:20.029Z,2.65
2022-09-23T08:21:48.232Z,2.20
2022-09-23T08:24:18.290Z,2.45
2022-09-23T08:26:46.880Z,2.00
2022-09-23T08:29:16.496Z,1.98
2022-09-23T08:31:44.128Z,1.90
2022-09-23T08:34:11.504Z,1.88
2022-09-23T08:36:38.845Z,1.80
2022-09-23T08:39:06.760Z,1.52
2022-09-23T08:41:36.748Z,1.60
2022-09-23T08:44:16.990Z,1.80
2022-09-23T08:46:49.584Z,1.70
2022-09-23T08:49:33.368Z,1.60
2022-09-23T08:52:09.846Z,1.55
2022-09-23T08:54:37.107Z,1.65
2022-09-23T08:57:06.675Z,1.30
2022-09-23T08:59:44.784Z,0.93
2022-09-23T09:02:20.176Z,1.40
2022-09-23T09:04:53.552Z,1.70
2022-09-23T09:07:37.382Z,1.80
2022-09-23T09:10:20.601Z,1.35
2022-09-23T09:12:51.066Z,1.23
2022-09-23T09:15:27.314Z,1.40
2022-09-23T09:18:19.964Z,1.80
2022-09-23T09:21:13.978Z,2.35
2022-09-23T09:24:00.098Z,1.98
2022-09-23T09:26:31.893Z,1.75
2022-09-23T09:29:36.204Z,2.10
2022-09-23T09:32:19.915Z,2.38
2022-09-23T09:35:05.612Z,2.20
2022-09-23T09:37:53.953Z,1.40
2022-09-23T09:40:21.450Z,1.92
2022-09-23T09:42:50.287Z,1.95
2022-09-23T09:45:24.245Z,2.10
2022-09-23T09:48:13.558Z,1.88
2022-09-23T09:50:42.502Z,1.75
2022-09-23T09:53:17.445Z,1.65
2022-09-23T09:55:46.114Z,1.80
2022-09-23T09:58:16.426Z,1.48
2022-09-23T10:00:45.991Z,1.52
2022-09-23T10:03:13.399Z,1.50
2022-09-23T10:05:43.994Z,1.30
2022-09-23T10:08:35.415Z,1.65
2022-09-23T10:11:08.119Z,2.03
2022-09-23T10:13:36.237Z,1.80
2022-09-23T10:16:04.886Z,1.80
2022-09-23T10:18:53.387Z,1.60
2022-09-23T10:21:27.709Z,1.45
2022-09-23T10:23:58.264Z,1.50
2022-09-23T10:26:32.335Z,1.80
2022-09-23T10:29:20.260Z,1.80
2022-09-23T10:31:47.589Z,1.60
2022-09-23T10:34:27.620Z,1.55
2022-09-23T10:37:14.476Z,1.10
2022-09-23T10:40:00.327Z,1.23
2022-09-23T10:43:05.096Z,1.40
2022-09-23T10:45:56.038Z,1.17
2022-09-23T10:48:29.530Z,1.33
2022-09-23T10:50:59.449Z,1.58
2022-09-23T10:53:59.255Z,1.60
2022-09-23T10:56:26.541Z,1.40
2022-09-23T10:59:10.853Z,1.45
2022-09-23T11:01:46.171Z,1.48
2022-09-23T11:04:41.908Z,1.45
2022-09-23T11:07:23.794Z,1.60
2022-09-23T11:10:35.264Z,1.55
2022-09-23T11:13:43.953Z,1.50
2022-09-23T11:16:21.658Z,1.42
2022-09-23T11:19:25.212Z,1.30
2022-09-23T11:22:18.552Z,1.95
2022-09-23T11:25:02.426Z,1.63
2022-09-23T11:27:35.737Z,1.38
2022-09-23T11:30:09.418Z,1.83
2022-09-23T11:32:44.660Z,1.25
2022-09-23T11:35:24.396Z,1.75
2022-09-23T11:38:00.582Z,1.50
2022-09-23T11:40:32.083Z,2.08
2022-09-23T11:43:11.383Z,2.28
2022-09-23T11:45:49.746Z,2.10
2022-09-23T11:48:36.122Z,2.20
2022-09-23T11:51:12.559Z,2.00
2022-09-23T11:53:55.905Z,2.20
2022-09-23T11:56:34.853Z,2.00
2022-09-23T11:59:15.868Z,2.13
2022-09-23T12:01:51.466Z,2.05
2022-09-23T12:04:31.513Z,2.05
2022-09-23T12:07:12.010Z,1.65
2022-09-23T12:10:03.753Z,1.50
2022-09-23T12:12:37.188Z,1.80
2022-09-23T12:15:07.152Z,1.40
2022-09-23T12:17:59.168Z,1.48
2022-09-23T12:20:42.552Z,1.42
2022-09-23T12:23:28.636Z,1.75
2022-09-23T12:26:00.712Z,1.70
2022-09-23T12:28:33.366Z,1.65
2022-09-23T12:31:04.454Z,1.60
2022-09-23T12:33:33.345Z,1.67
2022-09-23T12:36:05.135Z,1.70
2022-09-23T12:38:37.359Z,2.03
2022-09-23T12:41:26.283Z,1.90
2022-09-23T12:44:15.057Z,2.10
2022-09-23T12:46:47.024Z,1.63
2022-09-23T12:52:12.071Z,1.90
2022-09-23T12:54:40.683Z,1.65
2022-09-23T12:57:34.188Z,2.00
2022-09-23T13:00:12.516Z,1.90
2022-09-23T13:03:11.472Z,1.50
2022-09-23T13:06:10.444Z,2.00
2022-09-23T13:08:40.456Z,2.35
2022-09-23T13:11:26.907Z,1.88
2022-09-23T13:14:01.935Z,2.17
2022-09-23T13:16:37.049Z,1.60
2022-09-23T13:19:06.599Z,1.92
2022-09-23T13:21:42.963Z,2.05
2022-09-23T13:24:13.337Z,2.20
2022-09-23T13:26:46.581Z,2.00
2022-09-23T13:29:29.493Z,2.13
2022-09-23T13:31:57.996Z,2.00
2022-09-23T13:34:31.389Z,2.28
2022-09-23T13:36:58.947Z,2.00
2022-09-23T13:39:27.632Z,1.98
2022-09-23T13:42:04.653Z,1.90
2022-09-23T13:44:31.942Z,2.85
2022-09-23T13:47:03.274Z,2.38
2022-09-23T13:49:35.356Z,2.85
2022-09-23T13:52:03.667Z,2.75
2022-09-23T13:54:33.410Z,2.25
2022-09-23T13:57:00.966Z,2.65
2022-09-23T13:59:36.636Z,2.30
2022-09-23T14:02:04.738Z,2.83
2022-09-23T14:04:33.492Z,2.45
2022-09-23T14:07:04.651Z,2.75
2022-09-23T14:09:32.473Z,2.63
2022-09-23T14:12:01.566Z,2.88
2022-09-23T14:14:30.570Z,3.05
2022-09-23T14:16:59.125Z,2.72
2022-09-23T14:19:29.672Z,2.75
2022-09-23T14:21:56.957Z,2.90
2022-09-23T14:24:29.934Z,2.47
2022-09-23T14:27:04.021Z,2.58
2022-09-23T14:29:33.995Z,3.15
2022-09-23T14:32:05.235Z,3.45
2022-09-23T14:34:44.699Z,2.77
2022-09-23T14:37:36.849Z,3.45
2022-09-23T14:40:11.024Z,3.15
2022-09-23T14:42:41.503Z,2.90
2022-09-23T14:45:14.266Z,2.63
2022-09-23T14:47:51.992Z,2.88
2022-09-23T14:50:40.603Z,3.30
2022-09-23T14:53:18.444Z,2.83
2022-09-23T14:55:47.209Z,2.33
2022-09-23T14:58:19.473Z,2.80
2022-09-23T15:00:55.267Z,2.90
2022-09-23T15:03:23.041Z,2.78
2022-09-23T15:05:57.840Z,2.67
2022-09-23T15:08:27.555Z,3.20
2022-09-23T15:10:55.176Z,3.30
2022-09-23T15:13:28.827Z,2.70
2022-09-23T15:15:57.908Z,2.97
2022-09-23T15:18:29.118Z,3.50
2022-09-23T15:21:01.952Z,3.23
2022-09-23T15:23:44.627Z,3.45
2022-09-23T15:26:14.239Z,3.25
2022-09-23T15:28:42.855Z,2.60
2022-09-23T15:31:15.083Z,2.90
2022-09-23T15:33:47.714Z,3.13
2022-09-23T15:36:25.850Z,3.40
2022-09-23T15:39:01.228Z,3.33
2022-09-23T15:41:28.695Z,3.30
2022-09-23T15:43:56.511Z,3.53
2022-09-23T15:46:28.182Z,3.25
2022-09-23T15:49:00.182Z,2.88
2022-09-23T15:51:28.299Z,3.15
2022-09-23T15:53:56.428Z,2.97
2022-09-23T15:56:24.780Z,3.50
2022-09-23T15:58:52.136Z,2.70
2022-09-23T16:01:30.579Z,3.10
2022-09-23T16:04:01.215Z,2.88
2022-09-23T16:06:28.616Z,3.00
2022-09-23T16:08:56.200Z,3.15
2022-09-23T16:11:31.870Z,2.67
2022-09-23T16:14:00.706Z,3.00
2022-09-23T16:16:28.550Z,3.20
2022-09-23T16:18:55.947Z,3.60
2022-09-23T16:21:26.347Z,3.72
2022-09-23T16:23:55.120Z,3.85
2022-09-23T16:26:43.963Z,3.55
2022-09-23T16:29:14.351Z,3.17
2022-09-23T16:31:42.600Z,2.83
2022-09-23T16:34:09.876Z,3.10
2022-09-23T16:36:42.959Z,3.05
2022-09-23T16:39:13.164Z,3.47
2022-09-23T16:41:42.850Z,2.78
2022-09-23T16:44:12.346Z,3.05
2022-09-23T16:46:42.793Z,2.42
2022-09-23T16:49:12.118Z,2.58
2022-09-23T16:51:40.100Z,2.47
2022-09-23T16:54:10.988Z,3.30
2022-09-23T16:56:44.207Z,3.53
2022-09-23T16:59:13.236Z,3.28
2022-09-23T17:01:59.295Z,3.05
2022-09-23T17:04:27.694Z,3.65
2022-09-23T17:06:56.017Z,3.42
2022-09-23T17:09:26.235Z,3.53
2022-09-23T17:12:26.844Z,3.63
2022-09-23T17:14:54.267Z,3.90
2022-09-23T17:17:22.231Z,3.88
2022-09-23T17:19:49.469Z,5.28
2022-09-23T17:22:17.288Z,4.45
2022-09-23T17:24:44.587Z,4.07
2022-09-23T17:27:11.971Z,4.50
2022-09-23T17:29:41.683Z,4.40
2022-09-23T17:32:09.498Z,4.35
2022-09-23T17:34:36.733Z,4.25
2022-09-23T17:37:04.165Z,4.18
2022-09-23T17:39:31.805Z,4.38
2022-09-23T17:41:59.249Z,5.13
2022-09-23T17:44:26.724Z,5.97
2022-09-23T17:46:54.100Z,5.55
2022-09-23T17:49:21.949Z,5.40
2022-09-23T17:51:49.158Z,5.00
2022-09-23T17:54:16.585Z,5.30
2022-09-23T17:56:44.382Z,5.40
2022-09-23T17:59:15.008Z,5.18
2022-09-23T18:01:42.294Z,5.10
2022-09-23T18:04:12.118Z,5.00
2022-09-23T18:06:39.385Z,4.80
2022-09-23T18:09:08.665Z,5.10
2022-09-23T18:11:38.558Z,4.80
2022-09-23T18:14:18.655Z,5.22
2022-09-23T18:16:49.006Z,4.95
2022-09-23T18:19:18.736Z,4.68
2022-09-23T18:21:50.453Z,4.63
2022-09-23T18:24:31.718Z,4.53
2022-09-23T18:27:00.019Z,5.75
2022-09-23T18:29:28.146Z,5.80
2022-09-23T18:31:55.725Z,5.68
2022-09-23T18:34:23.632Z,4.85
2022-09-23T18:36:50.928Z,4.35
2022-09-23T18:39:18.231Z,3.78
2022-09-23T18:41:45.539Z,3.75
2022-09-23T18:44:12.923Z,4.30
2022-09-23T18:46:40.151Z,4.00
2022-09-23T18:49:29.194Z,3.60
2022-09-23T18:51:57.998Z,3.13
2022-09-23T18:54:27.812Z,3.60
2022-09-23T18:56:55.215Z,3.60
2022-09-23T18:59:26.366Z,3.13
2022-09-23T19:01:56.821Z,3.80
2022-09-23T19:04:25.829Z,4.00
2022-09-23T19:06:56.343Z,4.05
2022-09-23T19:09:23.828Z,3.72
2022-09-23T19:11:52.271Z,3.42
2022-09-23T19:14:19.955Z,2.95
2022-09-23T19:16:49.178Z,3.13
2022-09-23T19:19:17.325Z,2.65
2022-09-23T19:21:44.699Z,3.20
2022-09-23T19:24:15.739Z,3.05
2022-09-23T19:26:43.932Z,3.47
2022-09-23T19:29:16.789Z,3.20
2022-09-23T19:31:44.192Z,3.30
2022-09-23T19:34:17.887Z,3.08
2022-09-23T19:36:46.827Z,3.30
2022-09-23T19:39:23.696Z,3.13
2022-09-23T19:41:52.580Z,3.38
2022-09-23T19:44:20.258Z,3.50
2022-09-23T19:46:53.427Z,3.22
2022-09-23T19:49:24.486Z,3.20
2022-09-23T19:51:55.159Z,3.30
2022-09-23T19:54:22.859Z,3.42
2022-09-23T19:56:50.560Z,3.40
2022-09-23T19:59:19.388Z,2.92
2022-09-23T20:01:48.231Z,3.40
2022-09-23T20:04:16.709Z,3.15
2022-09-23T20:06:45.814Z,3.35
2022-09-23T20:09:13.327Z,3.30
2022-09-23T20:11:42.932Z,3.65
2022-09-23T20:14:11.645Z,3.65
2022-09-23T20:16:38.954Z,3.30
2022-09-23T20:19:06.334Z,3.30
2022-09-23T20:21:34.238Z,4.10
2022-09-23T20:24:04.422Z,3.63
2022-09-23T20:26:50.390Z,3.50
2022-09-23T20:29:17.800Z,3.72
2022-09-23T20:31:45.185Z,3.83
2022-09-23T20:34:12.886Z,3.38
2022-09-23T20:36:41.443Z,3.28
2022-09-23T20:39:10.308Z,3.50
2022-09-23T20:41:39.184Z,4.03
2022-09-23T20:44:14.204Z,3.50
2022-09-23T20:46:48.861Z,3.55
2022-09-23T20:49:20.830Z,3.50
2022-09-23T20:51:48.931Z,3.40
2022-09-23T20:54:19.130Z,4.20
2022-09-23T20:56:47.106Z,4.55
2022-09-23T20:59:15.013Z,3.90
2022-09-23T21:01:42.796Z,4.40
2022-09-23T21:04:13.272Z,4.85
2022-09-23T21:06:40.592Z,4.68
2022-09-23T21:09:08.034Z,4.60
2022-09-23T21:11:35.609Z,4.38
2022-09-23T21:14:03.041Z,4.80
2022-09-23T21:16:30.480Z,4.78
2022-09-23T21:18:58.119Z,4.38
2022-09-23T21:21:26.444Z,4.40
2022-09-23T21:23:53.892Z,4.60
2022-09-23T21:26:23.474Z,4.35
2022-09-23T21:28:53.331Z,4.30
2022-09-23T21:31:23.357Z,3.88
2022-09-23T21:33:55.824Z,4.15
2022-09-23T21:36:24.749Z,4.10
2022-09-23T21:38:52.892Z,4.30
2022-09-23T21:41:20.356Z,4.00
2022-09-23T21:43:49.680Z,3.95
2022-09-23T21:46:22.179Z,4.15
2022-09-23T21:48:53.575Z,4.22
2022-09-23T21:51:25.392Z,4.40
2022-09-23T21:53:54.770Z,4.25
2022-09-23T21:56:31.286Z,3.78
2022-09-23T21:58:59.952Z,3.78
2022-09-23T22:01:29.895Z,4.25
2022-09-23T22:03:59.426Z,4.00
2022-09-23T22:06:29.350Z,4.05
2022-09-23T22:09:01.782Z,4.13
2022-09-23T22:11:51.424Z,4.28
2022-09-23T22:14:20.567Z,4.53
2022-09-23T22:16:48.061Z,4.53
2022-09-23T22:19:15.615Z,3.88
2022-09-23T22:21:45.461Z,4.30
2022-09-23T22:24:13.338Z,4.50
2022-09-23T22:26:42.837Z,3.75
2022-09-23T22:29:32.967Z,3.65
2022-09-23T22:32:20.366Z,3.20
2022-09-23T22:34:51.986Z,3.65
2022-09-23T22:39:48.390Z,3.30
2022-09-23T22:42:16.195Z,3.45
2022-09-23T22:44:44.376Z,3.53
2022-09-23T22:47:11.663Z,3.55
2022-09-23T22:49:39.007Z,3.80
2022-09-23T22:52:11.186Z,3.50
2022-09-23T22:57:09.518Z,3.13
2022-09-23T22:59:37.626Z,3.50
2022-09-23T23:02:06.630Z,3.20
2022-09-23T23:04:34.132Z,3.53
2022-09-23T23:07:03.220Z,3.20
2022-09-23T23:09:30.488Z,3.53
2022-09-23T23:11:57.761Z,3.60
2022-09-23T23:14:26.359Z,3.28
2022-09-23T23:16:54.390Z,2.90
2022-09-23T23:19:21.856Z,2.70
2022-09-23T23:21:50.408Z,3.28
2022-09-23T23:24:20.080Z,3.28
2022-09-23T23:26:47.485Z,2.92
2022-09-23T23:29:17.305Z,3.00
2022-09-23T23:31:45.149Z,3.17
2022-09-23T23:34:17.607Z,3.10
2022-09-23T23:36:46.320Z,3.17
2022-09-23T23:39:14.537Z,3.45
2022-09-23T23:41:42.456Z,3.05
2022-09-23T23:44:12.453Z,3.05
2022-09-23T23:46:39.788Z,2.92
2022-09-23T23:49:07.156Z,2.67
2022-09-23T23:51:34.443Z,3.30
2022-09-23T23:54:01.794Z,3.10
2022-09-23T23:56:30.691Z,3.00
2022-09-23T23:59:00.331Z,3.10
